createdAt,value
2018-07-02T00:02:05.819Z,21.40
2018-07-02T00:04:33.692Z,21.30
2018-07-02T00:07:09.169Z,21.30
2018-07-02T00:09:36.878Z,21.30
2018-07-02T00:12:05.571Z,21.20
2018-07-02T00:14:33.366Z,21.60
2018-07-02T00:17:02.344Z,21.60
2018-07-02T00:19:30.108Z,21.50
2018-07-02T00:21:58.644Z,21.70
2018-07-02T00:24:26.433Z,21.90
2018-07-02T00:26:54.381Z,22.10
2018-07-02T00:29:22.239Z,22.30
2018-07-02T00:31:54.206Z,22.20
2018-07-02T00:34:23.107Z,22.50
2018-07-02T00:37:09.686Z,22.50
2018-07-02T00:39:37.406Z,22.60
2018-07-02T00:42:06.161Z,23.10
2018-07-02T00:44:34.068Z,23.10
2018-07-02T00:47:01.883Z,23.40
2018-07-02T00:49:29.728Z,23.30
2018-07-02T00:51:57.627Z,23.80
2018-07-02T00:54:25.350Z,23.50
2018-07-02T00:56:53.323Z,23.50
2018-07-02T00:59:21.034Z,23.80
2018-07-02T01:01:49.677Z,23.70
2018-07-02T01:04:17.266Z,23.80
2018-07-02T01:06:45.381Z,24.00
2018-07-02T01:09:13.139Z,24.10
2018-07-02T01:11:40.750Z,24.70
2018-07-02T01:14:08.432Z,24.70
2018-07-02T01:16:41.169Z,24.60
2018-07-02T01:19:08.790Z,24.30
2018-07-02T01:21:37.501Z,24.60
2018-07-02T01:24:06.362Z,24.60
2018-07-02T01:26:34.272Z,25.00
2018-07-02T01:29:03.111Z,25.10
2018-07-02T01:31:30.813Z,25.90
2018-07-02T01:33:59.585Z,25.50
2018-07-02T01:36:28.360Z,25.20
2018-07-02T01:38:57.122Z,25.70
2018-07-02T01:41:25.888Z,25.70
2018-07-02T01:43:53.497Z,25.70
2018-07-02T01:46:22.133Z,25.50
2018-07-02T01:48:49.819Z,25.60
2018-07-02T01:51:17.406Z,25.90
2018-07-02T01:53:46.090Z,25.50
2018-07-02T01:56:14.969Z,25.50
2018-07-02T01:58:43.602Z,25.70
2018-07-02T02:01:12.282Z,26.10
2018-07-02T02:03:41.004Z,26.00
2018-07-02T02:06:09.737Z,26.10
2018-07-02T02:08:37.533Z,26.00
2018-07-02T02:11:06.207Z,26.30
2018-07-02T02:13:33.976Z,26.40
2018-07-02T02:16:01.690Z,26.50
2018-07-02T02:18:29.507Z,26.40
2018-07-02T02:20:57.115Z,26.70
2018-07-02T02:23:25.778Z,27.00
2018-07-02T02:25:56.844Z,26.80
2018-07-02T02:28:26.681Z,27.00
2018-07-02T02:30:54.306Z,27.10
2018-07-02T02:33:21.898Z,26.70
2018-07-02T02:35:49.473Z,26.60
2018-07-02T02:38:19.210Z,27.20
2018-07-02T02:40:47.964Z,27.20
2018-07-02T02:43:15.551Z,27.50
2018-07-02T02:45:43.245Z,27.50
2018-07-02T02:48:12.036Z,27.50
2018-07-02T02:50:40.775Z,27.50
2018-07-02T02:53:08.509Z,27.50
2018-07-02T02:55:36.986Z,27.20
2018-07-02T02:58:27.459Z,27.50
2018-07-02T03:00:57.233Z,28.00
2018-07-02T03:03:24.978Z,27.50
2018-07-02T03:05:53.743Z,27.90
2018-07-02T03:08:24.237Z,27.60
2018-07-02T03:10:57.718Z,27.80
2018-07-02T03:13:25.347Z,27.70
2018-07-02T03:15:54.021Z,27.90
2018-07-02T03:18:21.670Z,27.90
2018-07-02T03:20:49.464Z,27.90
2018-07-02T03:23:22.666Z,27.80
2018-07-02T03:25:50.495Z,27.80
2018-07-02T03:28:18.229Z,27.80
2018-07-02T03:30:47.157Z,27.70
2018-07-02T03:33:15.920Z,27.80
2018-07-02T03:35:44.737Z,27.70
2018-07-02T03:38:12.500Z,27.70
2018-07-02T03:40:40.133Z,27.70
2018-07-02T03:43:07.875Z,27.70
2018-07-02T03:45:35.446Z,27.70
2018-07-02T03:48:03.125Z,27.70
2018-07-02T03:50:30.710Z,27.70
2018-07-02T03:52:58.512Z,27.70
2018-07-02T03:55:26.122Z,27.80
2018-07-02T03:57:53.772Z,28.00
2018-07-02T04:00:21.722Z,28.00
2018-07-02T04:02:50.406Z,28.20
2018-07-02T04:05:18.050Z,28.20
2018-07-02T04:07:45.660Z,27.80
2018-07-02T04:10:13.320Z,27.80
2018-07-02T04:12:41.017Z,28.20
2018-07-02T04:15:08.983Z,28.00
2018-07-02T04:17:37.034Z,28.40
2018-07-02T04:20:04.752Z,28.00
2018-07-02T04:22:32.572Z,28.00
2018-07-02T04:25:00.318Z,28.00
2018-07-02T04:27:29.150Z,28.10
2018-07-02T04:29:59.074Z,28.10
2018-07-02T04:32:27.872Z,28.20
2018-07-02T04:34:56.086Z,28.20
2018-07-02T04:37:23.864Z,28.20
2018-07-02T04:39:52.464Z,28.30
2018-07-02T04:42:20.124Z,27.80
2018-07-02T04:44:47.962Z,28.20
2018-07-02T04:47:15.572Z,28.40
2018-07-02T04:49:44.208Z,27.50
2018-07-02T04:52:11.871Z,27.70
2018-07-02T04:54:40.589Z,27.20
2018-07-02T04:57:08.266Z,27.10
2018-07-02T04:59:37.041Z,27.50
2018-07-02T05:02:04.911Z,27.30
2018-07-02T05:04:32.747Z,26.90
2018-07-02T05:07:00.523Z,27.30
2018-07-02T05:09:28.215Z,27.00
2018-07-02T05:11:56.215Z,26.70
2018-07-02T05:14:25.135Z,27.10
2018-07-02T05:16:52.710Z,26.60
2018-07-02T05:19:20.379Z,26.40
2018-07-02T05:21:48.306Z,26.50
2018-07-02T05:24:15.995Z,26.40
2018-07-02T05:26:43.697Z,26.20
2018-07-02T05:29:22.610Z,25.90
2018-07-02T05:31:51.286Z,26.00
2018-07-02T05:34:18.950Z,26.10
2018-07-02T05:36:46.768Z,25.50
2018-07-02T05:39:14.565Z,25.90
2018-07-02T05:41:42.629Z,25.60
2018-07-02T05:44:11.487Z,25.30
2018-07-02T05:46:39.495Z,25.30
2018-07-02T05:49:07.278Z,24.10
2018-07-02T05:51:35.942Z,24.50
2018-07-02T05:54:04.543Z,24.10
2018-07-02T05:56:32.467Z,24.80
2018-07-02T05:59:02.319Z,24.30
2018-07-02T06:01:30.094Z,24.20
2018-07-02T06:03:58.985Z,23.60
2018-07-02T06:06:26.722Z,23.70
2018-07-02T06:11:47.590Z,23.10
2018-07-02T06:14:15.384Z,23.20
2018-07-02T06:16:43.096Z,22.50
2018-07-02T06:19:11.579Z,22.20
2018-07-02T06:21:42.515Z,22.20
2018-07-02T06:24:11.755Z,22.30
2018-07-02T06:26:39.618Z,21.70
2018-07-02T06:29:10.862Z,22.00
2018-07-02T06:31:39.421Z,22.00
2018-07-02T06:34:08.148Z,21.50
2018-07-02T06:36:36.091Z,21.30
2018-07-02T06:39:06.863Z,21.20
2018-07-02T06:41:37.549Z,21.30
2018-07-02T06:44:06.271Z,21.50
2018-07-02T06:46:33.954Z,21.40
2018-07-02T06:49:03.951Z,21.00
2018-07-02T06:51:31.607Z,21.50
2018-07-02T06:53:59.413Z,21.30
2018-07-02T06:56:27.487Z,20.30
2018-07-02T06:58:56.171Z,20.00
2018-07-02T07:01:24.949Z,19.80
2018-07-02T07:03:53.624Z,19.60
2018-07-02T07:06:21.338Z,19.30
2018-07-02T07:08:49.205Z,18.30
2018-07-02T07:11:16.873Z,18.50
2018-07-02T07:13:44.538Z,19.00
2018-07-02T07:16:13.422Z,19.10
2018-07-02T07:18:41.202Z,18.20
2018-07-02T07:21:08.798Z,18.20
2018-07-02T07:23:38.556Z,18.20
2018-07-02T07:26:06.178Z,18.20
2018-07-02T07:28:33.990Z,18.20
2018-07-02T07:31:01.777Z,18.10
2018-07-02T07:33:29.424Z,18.30
2018-07-02T07:35:57.596Z,18.60
2018-07-02T07:38:26.368Z,18.20
2018-07-02T07:40:54.726Z,17.80
2018-07-02T07:43:23.450Z,18.00
2018-07-02T07:45:54.973Z,18.20
2018-07-02T07:48:23.013Z,18.40
2018-07-02T07:50:50.597Z,17.30
2018-07-02T07:53:18.292Z,17.50
2018-07-02T07:55:46.036Z,17.60
2018-07-02T07:58:13.702Z,17.60
2018-07-02T08:00:41.319Z,17.30
2018-07-02T08:03:08.872Z,16.80
2018-07-02T08:05:36.495Z,17.00
2018-07-02T08:08:04.130Z,16.60
2018-07-02T08:10:33.881Z,16.50
2018-07-02T08:13:01.499Z,15.80
2018-07-02T08:15:29.185Z,16.10
2018-07-02T08:17:59.037Z,15.90
2018-07-02T08:20:27.035Z,16.30
2018-07-02T08:22:54.847Z,15.90
2018-07-02T08:25:23.704Z,16.70
2018-07-02T08:27:52.156Z,16.00
2018-07-02T08:30:19.804Z,16.00
2018-07-02T08:32:47.406Z,16.10
2018-07-02T08:35:15.047Z,16.20
2018-07-02T08:37:42.688Z,15.90
2018-07-02T08:40:10.569Z,15.90
2018-07-02T08:42:38.270Z,15.90
2018-07-02T08:45:06.432Z,15.40
2018-07-02T08:47:34.746Z,14.90
2018-07-02T08:50:02.300Z,14.80
2018-07-02T08:52:30.102Z,15.40
2018-07-02T08:54:57.767Z,14.90
2018-07-02T08:57:25.874Z,14.60
2018-07-02T08:59:54.011Z,14.30
2018-07-02T09:02:22.710Z,14.20
2018-07-02T09:04:50.298Z,15.20
2018-07-02T09:07:18.076Z,15.20
2018-07-02T09:09:47.239Z,15.00
2018-07-02T09:12:15.301Z,15.20
2018-07-02T09:14:43.458Z,15.30
2018-07-02T09:17:11.319Z,15.10
2018-07-02T09:19:39.003Z,14.60
2018-07-02T09:22:06.763Z,14.90
2018-07-02T09:24:34.444Z,15.20
2018-07-02T09:27:02.305Z,15.10
2018-07-02T09:29:29.958Z,14.30
2018-07-02T09:31:57.830Z,14.50
2018-07-02T09:34:25.524Z,14.40
2018-07-02T09:36:53.475Z,14.00
2018-07-02T09:39:21.188Z,14.50
2018-07-02T09:41:48.845Z,14.00
2018-07-02T09:44:16.663Z,13.80
2018-07-02T09:46:44.091Z,14.20
2018-07-02T09:49:13.004Z,13.90
2018-07-02T09:51:40.549Z,13.90
2018-07-02T09:54:08.136Z,14.00
2018-07-02T09:56:36.748Z,13.60
2018-07-02T09:59:04.620Z,13.70
2018-07-02T10:01:32.216Z,13.60
2018-07-02T10:03:59.980Z,13.90
2018-07-02T10:06:28.204Z,13.40
2018-07-02T10:08:56.297Z,13.10
2018-07-02T10:11:24.075Z,13.40
2018-07-02T10:13:53.037Z,13.30
2018-07-02T10:16:20.646Z,13.40
2018-07-02T10:18:48.567Z,13.30
2018-07-02T10:21:16.315Z,12.90
2018-07-02T10:23:44.004Z,12.50
2018-07-02T10:26:11.598Z,12.80
2018-07-02T10:28:39.683Z,12.30
2018-07-02T10:31:07.551Z,12.70
2018-07-02T10:33:35.148Z,13.00
2018-07-02T10:36:02.788Z,12.50
2018-07-02T10:38:30.959Z,12.90
2018-07-02T10:40:58.636Z,12.90
2018-07-02T10:43:26.352Z,12.70
2018-07-02T10:45:54.624Z,13.10
2018-07-02T10:48:23.310Z,12.00
2018-07-02T10:50:50.999Z,11.70
2018-07-02T10:53:18.566Z,11.10
2018-07-02T10:55:46.144Z,11.30
2018-07-02T10:58:13.720Z,11.90
2018-07-02T11:00:41.247Z,12.20
2018-07-02T11:03:08.773Z,12.10
2018-07-02T11:05:36.986Z,11.10
2018-07-02T11:08:04.499Z,12.30
2018-07-02T11:10:32.094Z,12.10
2018-07-02T11:13:04.260Z,10.70
2018-07-02T11:15:32.122Z,10.80
2018-07-02T11:17:59.955Z,10.90
2018-07-02T11:20:28.864Z,11.00
2018-07-02T11:22:56.474Z,10.20
2018-07-02T11:25:24.839Z,10.30
2018-07-02T11:27:52.650Z,10.40
2018-07-02T11:30:22.253Z,9.40
2018-07-02T11:32:49.933Z,10.40
2018-07-02T11:35:17.558Z,10.00
2018-07-02T11:37:45.307Z,10.00
2018-07-02T11:40:13.930Z,10.30
2018-07-02T11:42:41.552Z,10.40
2018-07-02T11:45:10.177Z,9.30
2018-07-02T11:47:37.893Z,9.10
2018-07-02T11:50:05.464Z,8.80
2018-07-02T11:52:33.003Z,8.50
2018-07-02T11:55:00.557Z,9.50
2018-07-02T11:57:28.232Z,8.50
2018-07-02T11:59:56.007Z,9.10
2018-07-02T12:02:23.619Z,8.60
2018-07-02T12:04:51.171Z,8.50
2018-07-02T12:07:26.075Z,8.10
2018-07-02T12:09:55.121Z,7.20
2018-07-02T12:12:22.831Z,8.40
2018-07-02T12:14:50.718Z,8.20
2018-07-02T12:17:20.598Z,8.20
2018-07-02T12:19:50.267Z,7.60
2018-07-02T12:22:17.966Z,7.00
2018-07-02T12:24:46.855Z,6.90
2018-07-02T12:27:14.484Z,6.90
2018-07-02T12:29:42.105Z,5.80
2018-07-02T12:32:09.774Z,6.70
2018-07-02T12:34:37.449Z,6.50
2018-07-02T12:37:05.146Z,5.80
2018-07-02T12:39:32.756Z,6.70
2018-07-02T12:42:01.535Z,5.20
2018-07-02T12:44:29.180Z,4.20
2018-07-02T12:46:56.974Z,4.50
2018-07-02T12:49:24.644Z,4.50
2018-07-02T12:51:52.191Z,4.50
2018-07-02T12:54:26.075Z,4.60
2018-07-02T12:56:53.596Z,4.50
2018-07-02T12:59:21.198Z,4.10
2018-07-02T13:01:48.895Z,3.70
2018-07-02T13:04:24.332Z,2.60
2018-07-02T13:06:51.951Z,2.70
2018-07-02T13:09:19.578Z,3.30
2018-07-02T13:11:47.213Z,3.40
2018-07-02T13:14:15.067Z,3.10
2018-07-02T13:16:42.779Z,2.70
2018-07-02T13:19:10.758Z,2.80
2018-07-02T13:21:38.323Z,2.80
2018-07-02T13:24:06.123Z,2.20
2018-07-02T13:26:33.646Z,2.40
2018-07-02T13:29:01.389Z,2.10
2018-07-02T13:31:29.319Z,2.20
2018-07-02T13:34:01.757Z,1.60
2018-07-02T13:36:29.427Z,2.50
2018-07-02T13:38:57.056Z,2.50
2018-07-02T13:41:25.947Z,2.20
2018-07-02T13:43:53.849Z,2.30
2018-07-02T13:46:22.099Z,2.80
2018-07-02T13:48:50.992Z,2.20
2018-07-02T13:51:18.654Z,2.50
2018-07-02T13:53:46.238Z,2.90
2018-07-02T13:56:14.510Z,3.20
2018-07-02T13:58:42.362Z,4.10
2018-07-02T14:01:10.608Z,3.80
2018-07-02T14:03:38.386Z,4.10
2018-07-02T14:06:06.803Z,4.40
2018-07-02T14:08:34.421Z,5.00
2018-07-02T14:11:02.052Z,5.30
2018-07-02T14:13:29.863Z,5.60
2018-07-02T14:15:58.001Z,5.70
2018-07-02T14:18:26.991Z,5.60
2018-07-02T14:20:57.256Z,7.10
2018-07-02T14:23:27.492Z,6.60
2018-07-02T14:25:56.807Z,6.80
2018-07-02T14:28:26.664Z,6.30
2018-07-02T14:30:54.678Z,6.60
2018-07-02T14:33:22.352Z,6.80
2018-07-02T14:35:50.066Z,7.10
2018-07-02T14:38:19.347Z,6.80
2018-07-02T14:40:49.256Z,7.80
2018-07-02T14:43:18.011Z,8.10
2018-07-02T14:45:45.855Z,7.60
2018-07-02T14:48:20.793Z,7.90
2018-07-02T14:50:48.516Z,8.20
2018-07-02T14:53:16.534Z,7.80
2018-07-02T14:55:46.708Z,8.30
2018-07-02T14:58:16.548Z,7.70
2018-07-02T15:00:46.271Z,7.80
2018-07-02T15:03:15.855Z,8.40
2018-07-02T15:05:44.936Z,8.20
2018-07-02T15:08:12.607Z,7.60
2018-07-02T15:10:41.251Z,8.40
2018-07-02T15:13:08.994Z,9.10
2018-07-02T15:15:37.701Z,8.80
2018-07-02T15:18:07.891Z,8.50
2018-07-02T15:20:35.632Z,8.20
2018-07-02T15:23:03.470Z,8.60
2018-07-02T15:25:31.258Z,9.00
2018-07-02T15:27:59.025Z,8.70
2018-07-02T15:30:28.758Z,8.70
2018-07-02T15:32:57.463Z,8.70
2018-07-02T15:35:25.084Z,8.70
2018-07-02T15:37:53.886Z,8.90
2018-07-02T15:40:22.498Z,8.30
2018-07-02T15:42:50.086Z,8.70
2018-07-02T15:45:17.797Z,9.00
2018-07-02T15:47:45.652Z,9.30
2018-07-02T15:50:25.468Z,9.30
2018-07-02T15:52:54.024Z,9.50
2018-07-02T15:55:21.712Z,8.90
2018-07-02T15:57:50.972Z,8.90
2018-07-02T16:00:18.705Z,9.20
2018-07-02T16:02:46.540Z,9.70
2018-07-02T16:05:14.342Z,9.20
2018-07-02T16:07:43.445Z,8.60
2018-07-02T16:10:11.033Z,8.90
2018-07-02T16:12:38.625Z,8.70
2018-07-02T16:15:06.554Z,8.80
2018-07-02T16:17:50.330Z,8.90
2018-07-02T16:20:17.897Z,8.40
2018-07-02T16:22:47.684Z,8.20
2018-07-02T16:25:15.399Z,9.30
2018-07-02T16:27:44.576Z,7.90
2018-07-02T16:30:17.076Z,8.00
2018-07-02T16:32:44.808Z,8.70
2018-07-02T16:35:12.504Z,8.60
2018-07-02T16:37:40.078Z,9.10
2018-07-02T16:40:08.699Z,8.70
2018-07-02T16:42:37.402Z,8.90
2018-07-02T16:45:05.121Z,9.00
2018-07-02T16:47:33.840Z,9.00
2018-07-02T16:50:05.674Z,8.80
2018-07-02T16:52:35.558Z,8.40
2018-07-02T16:55:04.085Z,9.70
2018-07-02T16:57:32.980Z,9.40
2018-07-02T17:00:00.731Z,8.90
2018-07-02T17:02:28.607Z,8.90
2018-07-02T17:04:57.450Z,9.40
2018-07-02T17:07:29.118Z,8.80
2018-07-02T17:10:01.742Z,9.00
2018-07-02T17:12:30.427Z,9.10
2018-07-02T17:14:58.807Z,8.90
2018-07-02T17:17:26.575Z,8.80
2018-07-02T17:19:54.575Z,8.40
2018-07-02T17:22:22.641Z,8.70
2018-07-02T17:24:50.284Z,8.30
2018-07-02T17:27:19.164Z,9.40
2018-07-02T17:29:46.902Z,9.20
2018-07-02T17:32:16.727Z,9.20
2018-07-02T17:34:44.407Z,9.10
2018-07-02T17:37:12.103Z,9.10
2018-07-02T17:39:39.734Z,8.90
2018-07-02T17:42:07.435Z,8.90
2018-07-02T17:44:35.032Z,8.70
2018-07-02T17:47:02.619Z,8.80
2018-07-02T17:49:30.290Z,8.70
2018-07-02T17:51:59.023Z,8.30
2018-07-02T17:54:26.795Z,9.10
2018-07-02T17:56:56.452Z,9.70
2018-07-02T17:59:25.648Z,9.30
2018-07-02T18:01:53.529Z,9.90
2018-07-02T18:04:21.326Z,9.90
2018-07-02T18:06:49.012Z,9.50
2018-07-02T18:09:16.658Z,9.30
2018-07-02T18:11:44.444Z,9.80
2018-07-02T18:14:12.157Z,9.80
2018-07-02T18:16:40.798Z,9.90
2018-07-02T18:19:09.648Z,10.00
2018-07-02T18:21:49.679Z,10.00
2018-07-02T18:24:17.348Z,10.00
2018-07-02T18:26:46.006Z,9.90
2018-07-02T18:29:13.915Z,9.90
2018-07-02T18:31:42.895Z,10.50
2018-07-02T18:34:10.676Z,10.60
2018-07-02T18:36:38.402Z,11.40
2018-07-02T18:39:08.216Z,11.90
2018-07-02T18:41:43.114Z,11.80
2018-07-02T18:44:10.868Z,11.20
2018-07-02T18:46:39.710Z,11.70
2018-07-02T18:49:08.443Z,12.10
2018-07-02T18:54:28.750Z,12.90
2018-07-02T18:56:56.625Z,13.30
2018-07-02T18:59:24.160Z,13.50
2018-07-02T19:01:55.272Z,14.00
2018-07-02T19:04:23.108Z,14.40
2018-07-02T19:06:50.932Z,13.90
2018-07-02T19:09:18.524Z,13.40
2018-07-02T19:11:46.193Z,13.30
2018-07-02T19:14:13.853Z,13.70
2018-07-02T19:16:41.990Z,14.10
2018-07-02T19:19:10.622Z,14.40
2018-07-02T19:21:38.490Z,14.60
2018-07-02T19:24:12.667Z,14.50
2018-07-02T19:26:40.574Z,14.60
2018-07-02T19:29:08.145Z,14.00
2018-07-02T19:31:37.801Z,14.60
2018-07-02T19:34:06.430Z,15.30
2018-07-02T19:36:35.150Z,15.20
2018-07-02T19:39:07.218Z,16.10
2018-07-02T19:41:34.897Z,15.50
2018-07-02T19:44:03.947Z,16.10
2018-07-02T19:46:32.527Z,15.90
2018-07-02T19:49:00.441Z,15.00
2018-07-02T19:51:29.213Z,15.20
2018-07-02T19:53:57.006Z,15.90
2018-07-02T19:56:24.638Z,16.00
2018-07-02T19:58:52.359Z,16.30
2018-07-02T20:01:21.091Z,16.20
2018-07-02T20:03:49.924Z,16.60
2018-07-02T20:06:18.973Z,16.80
2018-07-02T20:08:46.678Z,16.50
2018-07-02T20:11:15.386Z,16.40
2018-07-02T20:13:44.120Z,16.60
2018-07-02T20:16:12.350Z,16.60
2018-07-02T20:18:40.179Z,16.40
2018-07-02T20:21:09.217Z,16.80
2018-07-02T20:23:37.580Z,16.50
2018-07-02T20:26:06.535Z,16.40
2018-07-02T20:28:34.248Z,16.40
2018-07-02T20:31:01.870Z,16.30
2018-07-02T20:33:30.633Z,16.20
2018-07-02T20:35:58.356Z,16.20
2018-07-02T20:38:27.030Z,16.10
2018-07-02T20:40:57.096Z,16.10
2018-07-02T20:43:24.914Z,16.30
2018-07-02T20:45:52.501Z,16.30
2018-07-02T20:48:20.273Z,16.00
2018-07-02T20:50:48.239Z,16.10
2018-07-02T20:53:16.192Z,15.90
2018-07-02T20:55:44.178Z,16.30
2018-07-02T20:58:11.760Z,16.10
2018-07-02T21:00:40.319Z,16.50
2018-07-02T21:03:07.981Z,16.40
2018-07-02T21:05:36.158Z,16.00
2018-07-02T21:08:03.859Z,16.50
2018-07-02T21:10:31.770Z,16.30
2018-07-02T21:12:59.423Z,16.40
2018-07-02T21:15:27.489Z,16.50
2018-07-02T21:17:55.154Z,16.90
2018-07-02T21:20:22.858Z,17.00
2018-07-02T21:22:50.546Z,16.60
2018-07-02T21:25:18.988Z,16.80
2018-07-02T21:27:46.762Z,16.90
2018-07-02T21:30:14.419Z,17.00
2018-07-02T21:32:42.095Z,17.10
2018-07-02T21:35:10.023Z,17.20
2018-07-02T21:37:37.779Z,17.40
2018-07-02T21:40:05.685Z,17.10
2018-07-02T21:42:33.363Z,17.10
2018-07-02T21:45:01.176Z,16.90
2018-07-02T21:47:30.231Z,17.30
2018-07-02T21:49:58.046Z,17.30
2018-07-02T21:52:26.212Z,17.50
2018-07-02T21:54:53.958Z,17.30
2018-07-02T21:57:21.743Z,18.30
2018-07-02T21:59:49.399Z,17.70
2018-07-02T22:02:18.230Z,17.60
2018-07-02T22:04:45.970Z,17.90
2018-07-02T22:07:13.602Z,18.80
2018-07-02T22:09:46.089Z,18.10
2018-07-02T22:12:13.814Z,17.90
2018-07-02T22:14:43.588Z,18.10
2018-07-02T22:17:12.540Z,18.40
2018-07-02T22:19:40.336Z,18.30
2018-07-02T22:22:08.952Z,18.90
2018-07-02T22:24:36.625Z,18.40
2018-07-02T22:27:08.475Z,18.50
2018-07-02T22:29:36.054Z,18.90
2018-07-02T22:32:03.737Z,19.20
2018-07-02T22:34:31.312Z,19.10
2018-07-02T22:36:58.923Z,18.80
2018-07-02T22:39:26.835Z,18.80
2018-07-02T22:41:55.511Z,19.10
2018-07-02T22:44:23.141Z,19.20
2018-07-02T22:46:50.726Z,18.70
2018-07-02T22:49:18.276Z,18.90
2018-07-02T22:51:46.062Z,19.10
2018-07-02T22:54:13.823Z,19.30
2018-07-02T22:56:41.470Z,19.20
2018-07-02T22:59:10.168Z,19.30
2018-07-02T23:01:37.852Z,19.50
2018-07-02T23:04:05.464Z,19.90
2018-07-02T23:06:33.228Z,20.00
2018-07-02T23:09:00.817Z,20.50
2018-07-02T23:11:28.394Z,19.80
2018-07-02T23:13:59.964Z,19.70
2018-07-02T23:16:29.580Z,19.70
2018-07-02T23:18:57.239Z,20.40
2018-07-02T23:21:25.898Z,20.10
2018-07-02T23:23:53.450Z,20.00
2018-07-02T23:26:21.048Z,19.70
2018-07-02T23:28:49.328Z,19.80
2018-07-02T23:31:16.921Z,19.60
2018-07-02T23:33:45.537Z,19.80
2018-07-02T23:36:13.237Z,20.30
2018-07-02T23:38:41.093Z,19.90
2018-07-02T23:41:08.699Z,20.40
2018-07-02T23:43:36.427Z,20.80
2018-07-02T23:46:04.098Z,20.90
2018-07-02T23:48:31.587Z,20.70
2018-07-02T23:51:00.211Z,20.90
2018-07-02T23:53:29.050Z,21.10
2018-07-02T23:55:56.727Z,21.30
2018-07-02T23:58:25.375Z,21.90
